Michipicoten — CFG8060 — position and weather

sailwx.info

Track history (hours):
 
Tides and Currents Weather Stations Pressure Air Temp Water Temp Dewpoint Dewpoint Depression Visibility Wind Speed Wind Dir Waves Ship Positions

Michipicoten

Last reported at 2015-Jan-14 02:33 UTC. Time now 2015-Mar-06 04:08 UTC.
Position N 46°46' W 085°33'.
Warning: this ship's position is 51 days out of date.

Length 212 m.

Type: Ship. MMSI: 316002501.

Date/timePositionNaut miles runAvg speedWind from/ knotsBaromVisibWave heightAir tempDewpointWater temp
2015-Jan-14 02:33N 46°46' W 085°33'1613.5
2015-Jan-14 01:20N 46°47' W 085°09'2612.1
2015-Jan-13 23:11N 46°32' W 084°39'7 9.9
2015-Jan-13 22:30N 46°27' W 084°31'7 2.2
2015-Jan-13 19:13N 46°31' W 084°23'0 0.0
2015-Jan-13 18:32N 46°31' W 084°23'0 0.0
2015-Jan-13 17:30N 46°31' W 084°23'0 0.2
2015-Jan-13 16:28N 46°31' W 084°23'0 0.4
2015-Jan-13 15:19N 46°30' W 084°23'4 5.7
2015-Jan-13 14:32N 46°28' W 084°28'6 4.0
2015-Jan-13 13:05N 46°30' W 084°36'0 0.1
2015-Jan-13 12:08N 46°30' W 084°36'19 3.8
2015-Jan-13 07:15N 46°45' W 084°53'  
2015-Jan-06 02:38N 46°46' W 085°29'  
Track history (hours):
 
Tides and Currents Weather Stations Pressure Air Temp Water Temp Dewpoint Dewpoint Depression Visibility Wind Speed Wind Dir Waves Ship Positions

Michipicoten

Last reported at 2015-Jan-14 02:33 UTC. Time now 2015-Mar-06 04:08 UTC.
Position N 46°46' W 085°33'.
Warning: this ship's position is 51 days out of date.

Length 212 m.

Type: Ship. MMSI: 316002501.

Date/timePositionNaut miles runAvg speedWind from/ knotsBaromVisibWave heightAir tempDewpointWater temp
2015-Jan-14 02:33N 46°46' W 085°33'1613.5
2015-Jan-14 01:20N 46°47' W 085°09'2612.1
2015-Jan-13 23:11N 46°32' W 084°39'7 9.9
2015-Jan-13 22:30N 46°27' W 084°31'7 2.2
2015-Jan-13 19:13N 46°31' W 084°23'0 0.0
2015-Jan-13 18:32N 46°31' W 084°23'0 0.0
2015-Jan-13 17:30N 46°31' W 084°23'0 0.2
2015-Jan-13 16:28N 46°31' W 084°23'0 0.4
2015-Jan-13 15:19N 46°30' W 084°23'4 5.7
2015-Jan-13 14:32N 46°28' W 084°28'6 4.0
2015-Jan-13 13:05N 46°30' W 084°36'0 0.1
2015-Jan-13 12:08N 46°30' W 084°36'19 3.8
2015-Jan-13 07:15N 46°45' W 084°53'  
2015-Jan-06 02:38N 46°46' W 085°29'  

Dump ship's entire track history